createdAt,value
2022-08-06T00:01:14.099Z,0.90
2022-08-06T00:03:41.079Z,0.82
2022-08-06T00:06:09.376Z,1.23
2022-08-06T00:08:36.512Z,1.20
2022-08-06T00:11:04.442Z,1.23
2022-08-06T00:13:31.463Z,1.15
2022-08-06T00:16:09.768Z,1.40
2022-08-06T00:18:46.519Z,1.42
2022-08-06T00:21:41.762Z,1.75
2022-08-06T00:24:00.466Z,1.60
2022-08-06T00:26:29.921Z,1.83
2022-08-06T00:28:57.357Z,1.75
2022-08-06T00:31:24.218Z,1.60
2022-08-06T00:33:57.948Z,1.80
2022-08-06T00:36:28.285Z,2.00
2022-08-06T00:41:23.526Z,1.92
2022-08-06T00:43:54.536Z,1.70
2022-08-06T00:46:23.742Z,1.80
2022-08-06T00:48:53.451Z,1.95
2022-08-06T00:51:22.439Z,1.92
2022-08-06T00:53:49.805Z,2.03
2022-08-06T00:56:26.798Z,2.20
2022-08-06T00:59:01.041Z,2.00
2022-08-06T01:01:32.768Z,1.90
2022-08-06T01:04:16.418Z,2.00
2022-08-06T01:06:56.032Z,2.17
2022-08-06T01:09:26.012Z,2.13
2022-08-06T01:11:55.074Z,2.15
2022-08-06T01:14:39.271Z,2.28
2022-08-06T01:17:18.970Z,2.20
2022-08-06T01:22:01.249Z,2.05
2022-08-06T01:23:10.410Z,2.20
2022-08-06T01:25:57.104Z,2.13
2022-08-06T01:28:38.422Z,2.28
2022-08-06T01:31:13.142Z,2.40
2022-08-06T01:33:42.348Z,2.10
2022-08-06T01:36:18.404Z,2.50
2022-08-06T01:38:57.685Z,2.22
2022-08-06T01:41:55.021Z,2.30
2022-08-06T01:44:34.419Z,2.40
2022-08-06T01:47:05.817Z,2.72
2022-08-06T01:50:00.739Z,2.42
2022-08-06T01:52:40.626Z,2.33
2022-08-06T01:55:12.756Z,2.60
2022-08-06T01:58:08.468Z,2.35
2022-08-06T02:00:29.541Z,2.03
2022-08-06T02:02:59.628Z,2.38
2022-08-06T02:05:32.149Z,2.53
2022-08-06T02:08:36.805Z,2.40
2022-08-06T02:10:46.672Z,2.78
2022-08-06T02:13:16.291Z,2.92
2022-08-06T02:15:56.332Z,2.35
2022-08-06T02:18:34.030Z,2.65
2022-08-06T02:21:18.647Z,2.67
2022-08-06T02:23:47.207Z,2.72
2022-08-06T02:26:14.823Z,2.70
2022-08-06T02:28:43.929Z,3.03
2022-08-06T02:31:10.982Z,3.10
2022-08-06T02:34:02.385Z,2.80
2022-08-06T02:36:50.636Z,2.75
2022-08-06T02:39:29.983Z,2.72
2022-08-06T02:42:21.075Z,2.97
2022-08-06T02:44:53.107Z,3.10
2022-08-06T02:47:20.065Z,2.75
2022-08-06T02:49:57.720Z,3.00
2022-08-06T02:52:57.938Z,2.88
2022-08-06T02:55:33.893Z,2.83
2022-08-06T02:58:29.404Z,3.03
2022-08-06T03:01:08.654Z,3.10
2022-08-06T03:03:40.751Z,3.00
2022-08-06T03:06:21.923Z,2.58
2022-08-06T03:08:57.285Z,2.90
2022-08-06T03:11:25.534Z,3.13
2022-08-06T03:13:53.306Z,3.20
2022-08-06T03:16:23.926Z,3.10
2022-08-06T03:19:54.199Z,3.22
2022-08-06T03:21:41.129Z,3.55
2022-08-06T03:24:13.342Z,3.67
2022-08-06T03:26:40.620Z,3.53
2022-08-06T03:29:09.330Z,3.90
2022-08-06T03:31:36.407Z,3.80
2022-08-06T03:34:06.340Z,3.30
2022-08-06T03:36:35.305Z,3.42
2022-08-06T03:39:05.011Z,3.67
2022-08-06T03:41:39.511Z,3.60
2022-08-06T03:44:06.816Z,3.53
2022-08-06T03:46:38.404Z,3.60
2022-08-06T03:49:07.256Z,3.40
2022-08-06T03:51:51.405Z,3.58
2022-08-06T03:54:34.188Z,3.63
2022-08-06T03:57:12.786Z,3.67
2022-08-06T03:59:43.907Z,3.58
2022-08-06T04:02:36.798Z,3.50
2022-08-06T04:05:12.668Z,3.30
2022-08-06T04:07:55.561Z,3.45
2022-08-06T04:10:34.676Z,3.50
2022-08-06T04:13:38.923Z,3.80
2022-08-06T04:15:55.617Z,3.80
2022-08-06T04:18:28.861Z,3.90
2022-08-06T04:21:06.034Z,3.42
2022-08-06T04:23:45.461Z,3.58
2022-08-06T04:26:14.734Z,3.85
2022-08-06T04:28:44.925Z,3.58
2022-08-06T04:31:45.348Z,3.58
2022-08-06T04:34:11.912Z,3.80
2022-08-06T04:36:40.447Z,4.00
2022-08-06T04:39:15.299Z,4.00
2022-08-06T04:41:42.821Z,3.80
2022-08-06T04:44:13.856Z,3.63
2022-08-06T04:46:41.281Z,3.88
2022-08-06T04:49:08.294Z,3.58
2022-08-06T04:52:35.440Z,4.43
2022-08-06T04:54:27.938Z,3.47
2022-08-06T04:59:23.751Z,3.85
2022-08-06T05:01:56.822Z,3.70
2022-08-06T05:04:29.905Z,3.70
2022-08-06T05:07:10.576Z,4.03
2022-08-06T05:09:43.440Z,3.85
2022-08-06T05:12:17.679Z,3.72
2022-08-06T05:14:49.102Z,4.30
2022-08-06T05:17:18.344Z,4.05
2022-08-06T05:19:54.827Z,4.00
2022-08-06T05:22:47.741Z,4.25
2022-08-06T05:25:19.269Z,3.85
2022-08-06T05:28:04.047Z,3.97
2022-08-06T05:30:46.720Z,3.95
2022-08-06T05:33:23.528Z,4.03
2022-08-06T05:36:01.755Z,4.38
2022-08-06T05:38:31.759Z,3.88
2022-08-06T05:41:00.343Z,4.35
2022-08-06T05:43:57.999Z,4.57
2022-08-06T05:46:17.676Z,4.40
2022-08-06T05:48:56.594Z,4.35
2022-08-06T05:51:56.637Z,4.53
2022-08-06T05:54:32.954Z,4.18
2022-08-06T05:57:05.168Z,4.80
2022-08-06T05:59:38.021Z,4.65
2022-08-06T06:02:23.145Z,4.63
2022-08-06T06:06:03.877Z,4.75
2022-08-06T06:08:10.473Z,4.32
2022-08-06T06:10:25.757Z,4.60
2022-08-06T06:12:52.824Z,4.60
2022-08-06T06:16:01.019Z,4.80
2022-08-06T06:18:08.365Z,4.40
2022-08-06T06:21:03.251Z,4.85
2022-08-06T06:23:46.083Z,4.50
2022-08-06T06:26:32.494Z,4.40
2022-08-06T06:29:11.144Z,4.97
2022-08-06T06:32:04.222Z,4.50
2022-08-06T06:34:31.017Z,4.95
2022-08-06T06:37:16.608Z,4.57
2022-08-06T06:40:14.495Z,4.45
2022-08-06T06:42:57.361Z,4.45
2022-08-06T06:46:05.453Z,4.97
2022-08-06T06:48:22.560Z,4.55
2022-08-06T06:50:52.261Z,4.63
2022-08-06T06:53:19.762Z,4.50
2022-08-06T06:55:58.856Z,5.40
2022-08-06T06:58:33.456Z,4.82
2022-08-06T07:01:14.302Z,4.57
2022-08-06T07:03:48.937Z,4.97
2022-08-06T07:06:32.264Z,4.72
2022-08-06T07:09:12.433Z,5.20
2022-08-06T07:12:02.152Z,4.25
2022-08-06T07:14:33.410Z,5.30
2022-08-06T07:17:01.611Z,4.90
2022-08-06T07:19:51.202Z,5.05
2022-08-06T07:22:19.379Z,4.75
2022-08-06T07:24:54.337Z,4.93
2022-08-06T07:27:35.965Z,5.25
2022-08-06T07:30:09.259Z,5.20
2022-08-06T07:32:36.572Z,4.90
2022-08-06T07:35:12.131Z,4.88
2022-08-06T07:37:55.427Z,5.60
2022-08-06T07:40:30.975Z,4.60
2022-08-06T07:43:21.468Z,5.05
2022-08-06T07:45:51.113Z,6.78
2022-08-06T07:48:24.424Z,5.90
2022-08-06T07:50:52.395Z,6.10
2022-08-06T07:53:22.487Z,5.90
2022-08-06T07:56:08.935Z,5.90
2022-08-06T07:58:36.518Z,5.93
2022-08-06T08:01:06.712Z,5.57
2022-08-06T08:03:57.118Z,5.85
2022-08-06T08:06:26.900Z,5.65
2022-08-06T08:08:58.383Z,5.85
2022-08-06T08:11:37.963Z,5.72
2022-08-06T08:14:19.122Z,6.13
2022-08-06T08:16:46.569Z,5.63
2022-08-06T08:19:35.228Z,6.00
2022-08-06T08:22:04.215Z,5.82
2022-08-06T08:24:34.014Z,6.05
2022-08-06T08:27:04.754Z,5.65
2022-08-06T08:29:40.501Z,6.22
2022-08-06T08:32:19.645Z,5.75
2022-08-06T08:34:50.701Z,5.65
2022-08-06T08:37:19.753Z,6.18
2022-08-06T08:39:48.112Z,6.25
2022-08-06T08:42:28.228Z,6.50
2022-08-06T08:44:58.776Z,6.03
2022-08-06T08:47:39.076Z,6.63
2022-08-06T08:50:13.095Z,6.20
2022-08-06T08:52:41.744Z,6.00
2022-08-06T08:57:10.099Z,5.50
2022-08-06T08:58:37.968Z,5.72
2022-08-06T09:00:52.512Z,5.93
2022-08-06T09:03:22.933Z,5.70
2022-08-06T09:05:53.280Z,5.32
2022-08-06T09:08:59.657Z,5.30
2022-08-06T09:11:12.199Z,5.10
2022-08-06T09:13:57.635Z,5.38
2022-08-06T09:16:32.275Z,5.55
2022-08-06T09:19:00.053Z,5.40
2022-08-06T09:21:28.538Z,5.32
2022-08-06T09:23:57.995Z,5.00
2022-08-06T09:26:53.941Z,5.30
2022-08-06T09:29:23.012Z,5.25
2022-08-06T09:31:54.446Z,4.75
2022-08-06T09:34:39.349Z,5.03
2022-08-06T09:37:08.679Z,4.78
2022-08-06T09:39:59.873Z,5.13
2022-08-06T09:42:42.940Z,5.18
2022-08-06T09:45:15.843Z,5.05
2022-08-06T09:47:57.741Z,5.47
2022-08-06T09:50:55.182Z,5.30
2022-08-06T09:53:24.770Z,5.65
2022-08-06T09:55:53.138Z,5.88
2022-08-06T09:58:31.906Z,5.20
2022-08-06T10:01:11.742Z,4.80
2022-08-06T10:04:04.333Z,5.07
2022-08-06T10:06:35.575Z,4.53
2022-08-06T10:09:12.019Z,4.88
2022-08-06T10:11:49.649Z,4.60
2022-08-06T10:14:26.386Z,5.03
2022-08-06T10:17:11.466Z,5.15
2022-08-06T10:19:51.797Z,4.00
2022-08-06T10:22:21.958Z,4.07
2022-08-06T10:24:53.094Z,4.57
2022-08-06T10:27:21.838Z,4.57
2022-08-06T10:29:52.901Z,5.13
2022-08-06T10:32:30.491Z,4.38
2022-08-06T10:35:12.245Z,4.63
2022-08-06T10:37:49.408Z,5.20
2022-08-06T10:40:18.641Z,4.40
2022-08-06T10:42:58.808Z,4.28
2022-08-06T10:45:26.978Z,4.25
2022-08-06T10:48:57.763Z,4.95
2022-08-06T10:50:54.261Z,4.57
2022-08-06T10:54:01.417Z,4.57
2022-08-06T10:56:10.952Z,4.47
2022-08-06T10:58:41.181Z,4.18
2022-08-06T11:01:09.693Z,4.13
2022-08-06T11:03:56.857Z,4.03
2022-08-06T11:06:35.770Z,4.65
2022-08-06T11:09:22.182Z,5.05
2022-08-06T11:12:27.906Z,4.53
2022-08-06T11:14:55.662Z,4.20
2022-08-06T11:17:22.731Z,4.22
2022-08-06T11:19:57.367Z,3.80
2022-08-06T11:22:53.786Z,4.35
2022-08-06T11:25:44.954Z,4.28
2022-08-06T11:28:15.782Z,4.40
2022-08-06T11:30:46.237Z,4.10
2022-08-06T11:33:21.923Z,4.07
2022-08-06T11:35:54.303Z,4.22
2022-08-06T11:38:44.529Z,4.00
2022-08-06T11:41:50.095Z,4.40
2022-08-06T11:44:10.322Z,4.30
2022-08-06T11:46:43.174Z,4.05
2022-08-06T11:49:18.186Z,4.32
2022-08-06T11:51:46.743Z,4.40
2022-08-06T11:54:33.810Z,4.55
2022-08-06T11:57:08.264Z,4.07
2022-08-06T11:59:56.324Z,4.10
2022-08-06T12:02:44.272Z,3.70
2022-08-06T12:05:17.487Z,4.07
2022-08-06T12:07:51.626Z,4.30
2022-08-06T12:10:29.006Z,4.45
2022-08-06T12:12:57.426Z,4.00
2022-08-06T12:15:53.059Z,3.80
2022-08-06T12:20:54.067Z,3.70
2022-08-06T12:23:53.912Z,3.78
2022-08-06T12:26:11.226Z,4.50
2022-08-06T12:28:38.597Z,3.83
2022-08-06T12:31:34.911Z,3.70
2022-08-06T12:33:52.861Z,4.15
2022-08-06T12:36:32.317Z,3.75
2022-08-06T12:39:04.024Z,3.80
2022-08-06T12:41:45.239Z,3.90
2022-08-06T12:44:13.557Z,3.63
2022-08-06T12:46:41.942Z,3.50
2022-08-06T12:49:10.844Z,4.05
2022-08-06T12:51:38.129Z,4.03
2022-08-06T12:54:07.856Z,3.60
2022-08-06T12:56:39.115Z,3.63
2022-08-06T12:59:22.564Z,3.75
2022-08-06T13:02:07.064Z,3.58
2022-08-06T13:04:43.047Z,3.55
2022-08-06T13:07:14.463Z,4.03
2022-08-06T13:10:15.546Z,3.50
2022-08-06T13:14:03.432Z,3.67
2022-08-06T13:15:18.694Z,3.40
2022-08-06T13:18:13.335Z,3.60
2022-08-06T13:20:58.640Z,3.13
2022-08-06T13:23:30.338Z,3.38
2022-08-06T13:26:16.053Z,3.33
2022-08-06T13:30:34.443Z,3.20
2022-08-06T13:32:01.119Z,3.15
2022-08-06T13:34:28.208Z,3.35
2022-08-06T13:36:59.295Z,2.83
2022-08-06T13:39:34.046Z,2.95
2022-08-06T13:42:12.768Z,3.00
2022-08-06T13:44:43.075Z,3.10
2022-08-06T13:47:38.742Z,3.45
2022-08-06T13:50:03.223Z,3.30
2022-08-06T13:52:31.047Z,3.50
2022-08-06T13:54:58.508Z,3.30
2022-08-06T13:57:25.523Z,3.35
2022-08-06T13:59:52.624Z,3.55
2022-08-06T14:02:19.842Z,4.25
2022-08-06T14:04:50.392Z,3.15
2022-08-06T14:10:07.822Z,2.85
2022-08-06T14:12:31.897Z,2.92
2022-08-06T14:14:59.460Z,3.05
2022-08-06T14:17:34.578Z,2.72
2022-08-06T14:20:09.086Z,3.05
2022-08-06T14:22:43.129Z,2.97
2022-08-06T14:25:10.473Z,2.92
2022-08-06T14:27:42.956Z,3.00
2022-08-06T14:30:25.600Z,3.00
2022-08-06T14:32:59.103Z,2.85
2022-08-06T14:35:26.214Z,2.95
2022-08-06T14:37:56.405Z,3.20
2022-08-06T14:41:01.244Z,2.67
2022-08-06T14:43:55.969Z,3.33
2022-08-06T14:46:30.536Z,2.95
2022-08-06T14:48:59.543Z,3.00
2022-08-06T14:51:37.374Z,3.20
2022-08-06T14:54:15.533Z,2.95
2022-08-06T14:56:45.670Z,2.90
2022-08-06T14:59:20.044Z,2.60
2022-08-06T15:01:47.711Z,2.85
2022-08-06T15:04:23.700Z,2.80
2022-08-06T15:06:53.538Z,2.78
2022-08-06T15:10:04.161Z,3.20
2022-08-06T15:12:11.655Z,3.30
2022-08-06T15:14:43.982Z,2.92
2022-08-06T15:17:49.841Z,3.08
2022-08-06T15:20:06.322Z,2.85
2022-08-06T15:22:39.314Z,2.90
2022-08-06T15:25:17.144Z,3.13
2022-08-06T15:27:50.210Z,3.08
2022-08-06T15:30:18.640Z,2.85
2022-08-06T15:32:57.455Z,2.92
2022-08-06T15:35:38.536Z,2.90
2022-08-06T15:38:11.701Z,2.90
2022-08-06T15:40:43.207Z,2.75
2022-08-06T15:43:12.633Z,2.50
2022-08-06T15:45:51.186Z,2.75
2022-08-06T15:48:29.138Z,2.60
2022-08-06T15:51:28.539Z,3.38
2022-08-06T15:53:54.697Z,3.08
2022-08-06T15:56:34.343Z,2.80
2022-08-06T15:59:12.441Z,2.70
2022-08-06T16:01:52.810Z,2.78
2022-08-06T16:04:28.487Z,2.80
2022-08-06T16:06:57.225Z,2.80
2022-08-06T16:09:28.037Z,2.92
2022-08-06T16:11:59.162Z,3.42
2022-08-06T16:14:32.969Z,2.50
2022-08-06T16:17:06.208Z,2.88
2022-08-06T16:19:49.303Z,3.08
2022-08-06T16:22:18.570Z,2.75
2022-08-06T16:24:45.799Z,2.80
2022-08-06T16:27:14.866Z,3.20
2022-08-06T16:29:48.445Z,3.10
2022-08-06T16:32:19.744Z,2.70
2022-08-06T16:34:51.297Z,2.75
2022-08-06T16:37:32.574Z,2.92
2022-08-06T16:40:04.772Z,2.95
2022-08-06T16:42:32.279Z,2.80
2022-08-06T16:45:03.025Z,2.90
2022-08-06T16:48:20.463Z,3.05
2022-08-06T16:50:26.690Z,2.80
2022-08-06T16:55:42.782Z,2.72
2022-08-06T16:58:16.908Z,2.70
2022-08-06T17:00:59.088Z,2.92
2022-08-06T17:03:45.924Z,2.90
2022-08-06T17:06:17.297Z,2.88
2022-08-06T17:08:53.600Z,2.90
2022-08-06T17:11:46.035Z,3.53
2022-08-06T17:16:55.201Z,2.90
2022-08-06T17:19:22.504Z,2.75
2022-08-06T17:21:52.829Z,2.70
2022-08-06T17:24:36.542Z,2.63
2022-08-06T17:27:15.170Z,2.80
2022-08-06T17:32:30.132Z,2.65
2022-08-06T17:35:00.770Z,2.55
2022-08-06T17:37:44.139Z,2.75
2022-08-06T17:40:19.675Z,2.40
2022-08-06T17:43:00.513Z,2.55
2022-08-06T17:45:31.590Z,2.30
2022-08-06T17:47:58.594Z,2.90
2022-08-06T17:50:41.947Z,2.58
2022-08-06T17:53:19.406Z,2.88
2022-08-06T17:55:59.535Z,2.70
2022-08-06T17:58:34.455Z,2.78
2022-08-06T18:01:17.067Z,2.78
2022-08-06T18:03:50.560Z,2.60
2022-08-06T18:06:19.402Z,2.67
2022-08-06T18:08:57.714Z,2.50
2022-08-06T18:11:26.717Z,2.80
2022-08-06T18:13:54.565Z,2.70
2022-08-06T18:16:28.034Z,2.70
2022-08-06T18:18:57.022Z,2.50
2022-08-06T18:21:25.561Z,2.30
2022-08-06T18:23:56.213Z,2.83
2022-08-06T18:26:32.862Z,2.40
2022-08-06T18:29:04.236Z,2.28
2022-08-06T18:31:59.092Z,2.45
2022-08-06T18:34:28.691Z,2.58
2022-08-06T18:36:57.223Z,2.30
2022-08-06T18:40:20.033Z,2.22
2022-08-06T18:42:31.371Z,2.22
2022-08-06T18:45:00.819Z,2.30
2022-08-06T18:47:30.246Z,2.45
2022-08-06T18:50:00.919Z,2.10
2022-08-06T18:52:28.350Z,2.25
2022-08-06T18:55:00.906Z,2.30
2022-08-06T18:58:04.004Z,2.13
2022-08-06T19:02:47.214Z,2.08
2022-08-06T19:05:16.874Z,2.53
2022-08-06T19:07:54.207Z,2.20
2022-08-06T19:10:27.611Z,2.05
2022-08-06T19:12:55.312Z,2.08
2022-08-06T19:15:44.767Z,2.10
2022-08-06T19:18:16.971Z,1.83
2022-08-06T19:20:45.859Z,2.22
2022-08-06T19:23:13.044Z,2.20
2022-08-06T19:26:12.678Z,2.10
2022-08-06T19:28:50.514Z,2.20
2022-08-06T19:31:41.192Z,2.20
2022-08-06T19:34:14.241Z,2.17
2022-08-06T19:36:43.372Z,2.13
2022-08-06T19:39:53.481Z,2.20
2022-08-06T19:42:01.771Z,2.35
2022-08-06T19:44:38.900Z,2.30
2022-08-06T19:47:21.497Z,1.95
2022-08-06T19:49:51.949Z,2.40
2022-08-06T19:52:23.501Z,2.00
2022-08-06T19:54:54.116Z,2.20
2022-08-06T19:57:30.214Z,2.08
2022-08-06T20:00:51.491Z,2.13
2022-08-06T20:02:50.849Z,2.33
2022-08-06T20:05:21.328Z,2.20
2022-08-06T20:08:10.634Z,2.30
2022-08-06T20:10:36.371Z,2.17
2022-08-06T20:13:09.084Z,2.13
2022-08-06T20:15:41.554Z,2.25
2022-08-06T20:18:14.234Z,2.10
2022-08-06T20:20:42.458Z,2.20
2022-08-06T20:23:12.831Z,2.28
2022-08-06T20:26:09.090Z,2.08
2022-08-06T20:29:08.730Z,2.22
2022-08-06T20:31:21.169Z,2.50
2022-08-06T20:33:57.979Z,2.30
2022-08-06T20:36:30.988Z,2.33
2022-08-06T20:38:58.700Z,2.50
2022-08-06T20:42:02.755Z,2.67
2022-08-06T20:44:18.123Z,2.28
2022-08-06T20:47:45.234Z,2.42
2022-08-06T20:50:02.862Z,2.47
2022-08-06T20:52:23.283Z,2.72
2022-08-06T20:54:51.728Z,2.50
2022-08-06T20:57:27.477Z,2.58
2022-08-06T20:59:59.661Z,2.40
2022-08-06T21:02:32.066Z,2.65
2022-08-06T21:05:15.803Z,2.50
2022-08-06T21:07:56.605Z,2.70
2022-08-06T21:10:30.331Z,2.65
2022-08-06T21:13:06.536Z,2.40
2022-08-06T21:15:54.467Z,2.55
2022-08-06T21:18:24.713Z,2.38
2022-08-06T21:20:53.137Z,2.50
2022-08-06T21:23:26.170Z,2.78
2022-08-06T21:26:11.647Z,2.90
2022-08-06T21:28:52.391Z,2.70
2022-08-06T21:31:27.664Z,3.10
2022-08-06T21:33:56.618Z,2.60
2022-08-06T21:36:26.075Z,2.72
2022-08-06T21:38:57.355Z,2.75
2022-08-06T21:41:49.802Z,2.63
2022-08-06T21:44:15.769Z,2.50
2022-08-06T21:46:44.489Z,2.70
2022-08-06T21:49:58.992Z,2.55
2022-08-06T21:52:04.879Z,2.70
2022-08-06T21:54:32.303Z,2.50
2022-08-06T21:57:02.095Z,2.47
2022-08-06T21:59:46.201Z,2.60
2022-08-06T22:02:21.829Z,2.72
2022-08-06T22:04:59.473Z,2.80
2022-08-06T22:08:06.534Z,3.00
2022-08-06T22:10:15.722Z,3.10
2022-08-06T22:13:12.033Z,2.92
2022-08-06T22:15:46.082Z,2.65
2022-08-06T22:18:16.969Z,2.80
2022-08-06T22:20:48.121Z,3.08
2022-08-06T22:23:16.548Z,3.25
2022-08-06T22:25:44.892Z,3.03
2022-08-06T22:28:23.697Z,3.00
2022-08-06T22:30:59.143Z,3.10
2022-08-06T22:33:26.263Z,2.90
2022-08-06T22:35:58.494Z,3.08
2022-08-06T22:38:38.961Z,3.20
2022-08-06T22:41:10.811Z,3.35
2022-08-06T22:43:55.923Z,3.33
2022-08-06T22:46:24.691Z,3.70
2022-08-06T22:48:52.996Z,3.60
2022-08-06T22:51:28.705Z,3.88
2022-08-06T22:54:30.431Z,4.20
2022-08-06T22:57:04.287Z,4.03
2022-08-06T23:00:11.529Z,4.50
2022-08-06T23:02:20.252Z,4.85
2022-08-06T23:04:49.123Z,4.50
2022-08-06T23:07:21.637Z,4.40
2022-08-06T23:09:53.968Z,4.28
2022-08-06T23:12:31.698Z,4.45
2022-08-06T23:15:29.955Z,4.72
2022-08-06T23:17:56.786Z,4.57
2022-08-06T23:20:32.857Z,4.50
2022-08-06T23:23:03.189Z,4.30
2022-08-06T23:26:01.902Z,4.30
2022-08-06T23:28:18.554Z,4.13
2022-08-06T23:30:50.456Z,4.68
2022-08-06T23:33:18.233Z,4.53
2022-08-06T23:35:45.167Z,5.20
2022-08-06T23:38:31.286Z,4.80
2022-08-06T23:40:59.180Z,5.00
2022-08-06T23:43:26.747Z,4.95
2022-08-06T23:45:58.283Z,4.88
2022-08-06T23:48:28.160Z,5.25
2022-08-06T23:50:55.265Z,4.60
2022-08-06T23:54:07.566Z,4.97
2022-08-06T23:56:13.762Z,4.68
2022-08-06T23:58:48.890Z,4.07
